createdAt,value
2023-03-19T00:00:56.928Z,5.52
2023-03-19T00:02:12.223Z,5.49
2023-03-19T00:03:21.631Z,5.46
2023-03-19T00:04:24.501Z,5.44
2023-03-19T00:05:32.089Z,5.44
2023-03-19T00:06:34.558Z,5.47
2023-03-19T00:07:39.203Z,5.47
2023-03-19T00:08:42.091Z,5.44
2023-03-19T00:09:48.471Z,5.45
2023-03-19T00:10:51.108Z,5.42
2023-03-19T00:11:55.993Z,5.42
2023-03-19T00:12:58.058Z,5.44
2023-03-19T00:14:02.670Z,5.42
2023-03-19T00:15:07.646Z,5.38
2023-03-19T00:16:12.594Z,5.36
2023-03-19T00:17:14.743Z,5.34
2023-03-19T00:18:19.340Z,5.38
2023-03-19T00:19:21.639Z,5.35
2023-03-19T00:20:26.304Z,5.35
2023-03-19T00:21:32.325Z,5.36
2023-03-19T00:22:37.247Z,5.34
2023-03-19T00:23:39.426Z,5.36
2023-03-19T00:24:44.744Z,5.39
2023-03-19T00:25:46.705Z,5.36
2023-03-19T00:26:51.366Z,5.36
2023-03-19T00:27:55.215Z,5.34
2023-03-19T00:29:00.669Z,5.32
2023-03-19T00:30:02.742Z,5.31
2023-03-19T00:31:12.374Z,5.31
2023-03-19T00:32:14.726Z,5.31
2023-03-19T00:33:20.254Z,5.29
2023-03-19T00:34:23.164Z,5.26
2023-03-19T00:35:27.942Z,5.29
2023-03-19T00:36:32.943Z,5.28
2023-03-19T00:37:38.637Z,5.30
2023-03-19T00:38:40.651Z,5.31
2023-03-19T00:39:45.282Z,5.33
2023-03-19T00:40:48.637Z,5.32
2023-03-19T00:41:53.636Z,5.32
2023-03-19T00:42:55.920Z,5.32
2023-03-19T00:44:01.569Z,5.33
2023-03-19T00:45:04.335Z,5.35
2023-03-19T00:46:09.621Z,5.38
2023-03-19T00:47:12.522Z,5.42
2023-03-19T00:48:17.262Z,5.46
2023-03-19T00:49:19.364Z,5.48
2023-03-19T00:50:25.113Z,5.52
2023-03-19T00:51:27.175Z,5.56
2023-03-19T00:52:34.785Z,5.63
2023-03-19T00:53:38.578Z,5.65
2023-03-19T00:54:43.361Z,5.67
2023-03-19T00:55:46.425Z,5.68
2023-03-19T00:56:51.011Z,5.68
2023-03-19T00:57:53.304Z,5.68
2023-03-19T00:58:59.632Z,5.67
2023-03-19T01:00:01.809Z,5.69
2023-03-19T01:01:06.789Z,5.68
2023-03-19T01:02:08.860Z,5.70
2023-03-19T01:03:13.601Z,5.70
2023-03-19T01:04:15.717Z,5.72
2023-03-19T01:05:20.599Z,5.73
2023-03-19T01:06:22.748Z,5.75
2023-03-19T01:07:27.499Z,5.74
2023-03-19T01:08:32.118Z,5.75
2023-03-19T01:09:37.203Z,5.78
2023-03-19T01:10:39.197Z,5.78
2023-03-19T01:11:44.106Z,5.79
2023-03-19T01:12:46.136Z,5.80
2023-03-19T01:13:51.417Z,5.80
2023-03-19T01:14:53.451Z,5.82
2023-03-19T01:15:58.111Z,5.86
2023-03-19T01:17:00.864Z,5.88
2023-03-19T01:18:05.580Z,5.92
2023-03-19T01:19:07.670Z,5.96
2023-03-19T01:20:18.816Z,5.99
2023-03-19T01:21:21.444Z,6.04
2023-03-19T01:22:26.286Z,6.07
2023-03-19T01:23:28.633Z,6.12
2023-03-19T01:24:36.277Z,6.16
2023-03-19T01:25:39.721Z,6.18
2023-03-19T01:26:44.661Z,6.18
2023-03-19T01:27:47.351Z,6.20
2023-03-19T01:28:52.579Z,6.21
2023-03-19T01:29:54.612Z,6.22
2023-03-19T01:31:02.982Z,6.23
2023-03-19T01:32:06.180Z,6.22
2023-03-19T01:33:10.859Z,6.24
2023-03-19T01:34:12.948Z,6.28
2023-03-19T01:35:17.606Z,6.25
2023-03-19T01:36:19.691Z,6.24
2023-03-19T01:37:24.808Z,6.23
2023-03-19T01:38:27.571Z,6.22
2023-03-19T01:39:32.216Z,6.23
2023-03-19T01:40:37.643Z,6.24
2023-03-19T01:41:42.297Z,6.28
2023-03-19T01:42:55.566Z,6.30
2023-03-19T01:44:00.218Z,6.27
2023-03-19T01:45:03.555Z,6.25
2023-03-19T01:46:14.696Z,6.27
2023-03-19T01:47:19.734Z,6.30
2023-03-19T01:48:30.890Z,6.30
2023-03-19T01:49:33.524Z,6.30
2023-03-19T01:50:43.250Z,6.31
2023-03-19T01:51:50.040Z,6.33
2023-03-19T01:52:52.426Z,6.35
2023-03-19T01:54:01.431Z,6.33
2023-03-19T01:55:07.479Z,6.35
2023-03-19T01:56:18.379Z,6.34
2023-03-19T01:57:22.498Z,6.36
2023-03-19T01:58:27.635Z,6.36
2023-03-19T01:59:33.284Z,6.35
2023-03-19T02:00:39.205Z,6.34
2023-03-19T02:01:51.471Z,6.38
2023-03-19T02:02:59.987Z,6.38
2023-03-19T02:04:02.055Z,6.40
2023-03-19T02:05:10.836Z,6.41
2023-03-19T02:06:14.463Z,6.42
2023-03-19T02:07:20.164Z,6.43
2023-03-19T02:08:23.939Z,6.41
2023-03-19T02:09:30.326Z,6.39
2023-03-19T02:10:33.043Z,6.38
2023-03-19T02:11:41.227Z,6.37
2023-03-19T02:12:43.349Z,6.44
2023-03-19T02:13:48.244Z,6.48
2023-03-19T02:14:50.365Z,6.49
2023-03-19T02:15:55.265Z,6.57
2023-03-19T02:16:57.385Z,6.66
2023-03-19T02:18:02.189Z,6.71
2023-03-19T02:19:05.473Z,6.83
2023-03-19T02:20:14.797Z,6.84
2023-03-19T02:21:18.241Z,6.88
2023-03-19T02:22:25.665Z,6.92
2023-03-19T02:23:35.929Z,6.99
2023-03-19T02:24:47.826Z,7.00
2023-03-19T02:26:00.745Z,7.02
2023-03-19T02:27:05.816Z,7.08
2023-03-19T02:28:09.896Z,7.12
2023-03-19T02:29:14.885Z,7.18
2023-03-19T02:30:23.173Z,7.26
2023-03-19T02:31:28.171Z,7.32
2023-03-19T02:32:30.320Z,7.31
2023-03-19T02:33:35.071Z,7.43
2023-03-19T02:34:39.653Z,7.48
2023-03-19T02:35:45.514Z,7.49
2023-03-19T02:36:52.223Z,7.56
2023-03-19T02:37:56.977Z,7.58
2023-03-19T02:39:03.037Z,7.55
2023-03-19T02:40:11.957Z,7.51
2023-03-19T02:41:16.744Z,7.51
2023-03-19T02:42:24.436Z,7.47
2023-03-19T02:43:27.000Z,7.43
2023-03-19T02:44:31.617Z,7.39
2023-03-19T02:45:33.688Z,7.36
2023-03-19T02:46:38.400Z,7.32
2023-03-19T02:47:41.027Z,7.29
2023-03-19T02:48:45.629Z,7.31
2023-03-19T02:49:47.636Z,7.31
2023-03-19T02:50:52.340Z,7.29
2023-03-19T02:51:54.465Z,7.31
2023-03-19T02:52:59.134Z,7.32
2023-03-19T02:54:01.195Z,7.33
2023-03-19T02:55:06.600Z,7.32
2023-03-19T02:56:09.032Z,7.34
2023-03-19T02:57:16.586Z,7.33
2023-03-19T02:58:18.811Z,7.34
2023-03-19T02:59:23.911Z,7.35
2023-03-19T03:00:26.542Z,7.33
2023-03-19T03:01:31.219Z,7.28
2023-03-19T03:02:33.550Z,7.31
2023-03-19T03:03:38.333Z,7.28
2023-03-19T03:04:40.325Z,7.26
2023-03-19T03:05:44.912Z,7.25
2023-03-19T03:06:46.930Z,7.25
2023-03-19T03:07:51.646Z,7.25
2023-03-19T03:08:53.650Z,7.28
2023-03-19T03:09:58.353Z,7.27
2023-03-19T03:11:00.520Z,7.31
2023-03-19T03:12:07.324Z,7.37
2023-03-19T03:13:11.906Z,7.39
2023-03-19T03:14:16.675Z,7.39
2023-03-19T03:15:19.119Z,7.40
2023-03-19T03:16:24.356Z,7.42
2023-03-19T03:17:27.129Z,7.43
2023-03-19T03:18:31.856Z,7.44
2023-03-19T03:19:34.006Z,7.42
2023-03-19T03:20:38.644Z,7.46
2023-03-19T03:21:41.337Z,7.44
2023-03-19T03:22:46.905Z,7.42
2023-03-19T03:23:49.100Z,7.39
2023-03-19T03:24:53.689Z,7.37
2023-03-19T03:25:55.777Z,7.40
2023-03-19T03:27:00.491Z,7.35
2023-03-19T03:28:02.543Z,7.35
2023-03-19T03:29:10.253Z,7.35
2023-03-19T03:30:13.086Z,7.36
2023-03-19T03:31:17.826Z,7.37
2023-03-19T03:32:19.873Z,7.37
2023-03-19T03:33:25.483Z,7.39
2023-03-19T03:34:27.503Z,7.40
2023-03-19T03:35:32.646Z,7.42
2023-03-19T03:36:34.730Z,7.39
2023-03-19T03:37:40.016Z,7.40
2023-03-19T03:38:42.030Z,7.36
2023-03-19T03:39:46.633Z,7.36
2023-03-19T03:40:51.238Z,7.37
2023-03-19T03:41:55.993Z,7.32
2023-03-19T03:42:58.018Z,7.34
2023-03-19T03:44:02.669Z,7.31
2023-03-19T03:45:09.707Z,7.30
2023-03-19T03:46:14.853Z,7.25
2023-03-19T03:47:17.995Z,7.22
2023-03-19T03:48:22.700Z,7.20
2023-03-19T03:49:24.736Z,7.18
2023-03-19T03:50:29.658Z,7.18
2023-03-19T03:51:31.928Z,7.17
2023-03-19T03:52:37.043Z,7.16
2023-03-19T03:53:39.104Z,7.17
2023-03-19T03:54:43.720Z,7.16
2023-03-19T03:55:45.881Z,7.13
2023-03-19T03:56:50.818Z,7.12
2023-03-19T03:57:52.803Z,7.09
2023-03-19T03:58:57.695Z,7.09
2023-03-19T03:59:59.722Z,7.08
2023-03-19T04:01:07.207Z,7.05
2023-03-19T04:02:09.573Z,7.06
2023-03-19T04:03:14.444Z,7.02
2023-03-19T04:04:16.871Z,6.96
2023-03-19T04:05:21.994Z,6.89
2023-03-19T04:06:25.772Z,6.85
2023-03-19T04:07:30.418Z,6.83
2023-03-19T04:08:32.493Z,6.81
2023-03-19T04:09:37.745Z,6.78
2023-03-19T04:10:40.804Z,6.75
2023-03-19T04:11:45.710Z,6.73
2023-03-19T04:12:47.757Z,6.70
2023-03-19T04:13:52.432Z,6.69
2023-03-19T04:14:54.444Z,6.67
2023-03-19T04:15:59.099Z,6.63
2023-03-19T04:17:05.240Z,6.62
2023-03-19T04:18:09.905Z,6.59
2023-03-19T04:19:11.959Z,6.58
2023-03-19T04:20:18.732Z,6.57
2023-03-19T04:21:21.390Z,6.54
2023-03-19T04:22:26.083Z,6.58
2023-03-19T04:23:28.554Z,6.55
2023-03-19T04:24:33.347Z,6.54
2023-03-19T04:25:35.410Z,6.50
2023-03-19T04:26:40.091Z,6.48
2023-03-19T04:27:42.183Z,6.42
2023-03-19T04:28:47.184Z,6.44
2023-03-19T04:29:49.267Z,6.40
2023-03-19T04:30:53.903Z,6.40
2023-03-19T04:31:55.932Z,6.39
2023-03-19T04:33:03.624Z,6.46
2023-03-19T04:34:06.108Z,6.45
2023-03-19T04:35:12.151Z,6.45
2023-03-19T04:36:14.186Z,6.46
2023-03-19T04:37:19.002Z,6.46
2023-03-19T04:38:21.215Z,6.45
2023-03-19T04:39:26.088Z,6.43
2023-03-19T04:40:28.224Z,6.44
2023-03-19T04:41:32.808Z,6.47
2023-03-19T04:42:34.799Z,6.42
2023-03-19T04:43:39.377Z,6.44
2023-03-19T04:44:42.233Z,6.45
2023-03-19T04:45:46.876Z,6.40
2023-03-19T04:46:48.952Z,6.36
2023-03-19T04:47:54.198Z,6.33
2023-03-19T04:48:59.954Z,6.36
2023-03-19T04:50:04.667Z,6.34
2023-03-19T04:51:08.718Z,6.30
2023-03-19T04:52:14.062Z,6.28
2023-03-19T04:53:16.019Z,6.31
2023-03-19T04:54:20.860Z,6.28
2023-03-19T04:55:23.763Z,6.25
2023-03-19T04:56:28.743Z,6.22
2023-03-19T04:57:30.897Z,6.21
2023-03-19T04:58:35.869Z,6.21
2023-03-19T04:59:37.875Z,6.20
2023-03-19T05:00:42.487Z,6.19
2023-03-19T05:01:44.878Z,6.17
2023-03-19T05:02:49.949Z,6.14
2023-03-19T05:03:52.338Z,6.13
2023-03-19T05:04:59.632Z,6.11
2023-03-19T05:06:01.630Z,6.11
2023-03-19T05:07:06.431Z,6.10
2023-03-19T05:08:09.013Z,6.08
2023-03-19T05:09:13.966Z,6.07
2023-03-19T05:10:16.163Z,6.05
2023-03-19T05:11:21.449Z,6.08
2023-03-19T05:12:23.510Z,6.09
2023-03-19T05:13:28.326Z,6.09
2023-03-19T05:14:30.589Z,6.08
2023-03-19T05:15:35.217Z,6.09
2023-03-19T05:16:37.321Z,6.09
2023-03-19T05:17:43.016Z,6.09
2023-03-19T05:18:45.104Z,6.09
2023-03-19T05:19:49.962Z,6.08
2023-03-19T05:20:55.455Z,6.08
2023-03-19T05:22:00.387Z,6.08
2023-03-19T05:23:02.973Z,6.07
2023-03-19T05:24:08.054Z,6.08
2023-03-19T05:25:10.212Z,6.08
2023-03-19T05:26:16.065Z,6.09
2023-03-19T05:27:18.996Z,6.11
2023-03-19T05:28:23.605Z,6.11
2023-03-19T05:29:26.752Z,6.12
2023-03-19T05:30:31.888Z,6.13
2023-03-19T05:31:34.026Z,6.12
2023-03-19T05:32:38.753Z,6.15
2023-03-19T05:33:40.963Z,6.12
2023-03-19T05:34:45.684Z,6.09
2023-03-19T05:35:47.706Z,6.11
2023-03-19T05:36:54.943Z,6.10
2023-03-19T05:37:57.192Z,6.15
2023-03-19T05:39:02.153Z,6.18
2023-03-19T05:40:05.419Z,6.19
2023-03-19T05:41:11.075Z,6.21
2023-03-19T05:42:14.930Z,6.27
2023-03-19T05:43:19.609Z,6.34
2023-03-19T05:44:21.709Z,6.36
2023-03-19T05:45:26.329Z,6.35
2023-03-19T05:46:28.511Z,6.33
2023-03-19T05:47:34.298Z,6.36
2023-03-19T05:48:36.388Z,6.34
2023-03-19T05:49:41.484Z,6.34
2023-03-19T05:50:43.596Z,6.33
2023-03-19T05:51:48.289Z,6.33
2023-03-19T05:52:55.633Z,6.36
2023-03-19T05:53:57.702Z,6.36
2023-03-19T05:55:02.334Z,6.37
2023-03-19T05:56:05.242Z,6.39
2023-03-19T05:57:10.088Z,6.41
2023-03-19T05:58:12.215Z,6.43
2023-03-19T05:59:16.897Z,6.45
2023-03-19T06:00:20.202Z,6.46
2023-03-19T06:01:24.969Z,6.51
2023-03-19T06:02:27.322Z,6.53
2023-03-19T06:03:32.698Z,6.53
2023-03-19T06:04:34.785Z,6.55
2023-03-19T06:05:39.700Z,6.57
2023-03-19T06:06:42.392Z,6.59
2023-03-19T06:07:47.024Z,6.62
2023-03-19T06:08:54.421Z,6.60
2023-03-19T06:09:56.551Z,6.62
2023-03-19T06:11:01.335Z,6.66
2023-03-19T06:12:04.137Z,6.67
2023-03-19T06:13:08.768Z,6.69
2023-03-19T06:14:10.874Z,6.71
2023-03-19T06:15:15.499Z,6.75
2023-03-19T06:16:17.556Z,6.78
2023-03-19T06:17:22.635Z,6.80
2023-03-19T06:18:24.856Z,6.83
2023-03-19T06:19:29.557Z,6.85
2023-03-19T06:20:32.390Z,6.88
2023-03-19T06:21:37.751Z,6.91
2023-03-19T06:22:40.727Z,6.92
2023-03-19T06:23:45.358Z,6.94
2023-03-19T06:24:52.638Z,6.97
2023-03-19T06:25:54.828Z,6.99
2023-03-19T06:26:59.534Z,7.02
2023-03-19T06:28:01.620Z,7.03
2023-03-19T06:29:06.809Z,7.06
2023-03-19T06:30:10.390Z,7.08
2023-03-19T06:31:15.105Z,7.10
2023-03-19T06:32:17.431Z,7.12
2023-03-19T06:33:22.164Z,7.14
2023-03-19T06:34:24.342Z,7.16
2023-03-19T06:35:29.252Z,7.18
2023-03-19T06:36:31.917Z,7.20
2023-03-19T06:37:36.631Z,7.22
2023-03-19T06:38:38.648Z,7.26
2023-03-19T06:39:43.517Z,7.18
2023-03-19T06:40:48.567Z,7.21
2023-03-19T06:41:53.282Z,7.23
2023-03-19T06:42:55.377Z,7.26
2023-03-19T06:44:00.290Z,7.29
2023-03-19T06:45:02.669Z,7.26
2023-03-19T06:46:10.830Z,7.24
2023-03-19T06:47:14.372Z,7.24
2023-03-19T06:48:19.034Z,7.28
2023-03-19T06:49:22.012Z,7.27
2023-03-19T06:50:26.671Z,7.31
2023-03-19T06:51:28.802Z,7.31
2023-03-19T06:52:33.420Z,7.32
2023-03-19T06:53:35.623Z,7.35
2023-03-19T06:54:40.211Z,7.37
2023-03-19T06:55:42.582Z,7.39
2023-03-19T06:56:49.894Z,7.43
2023-03-19T06:57:52.010Z,7.51
2023-03-19T06:58:56.624Z,7.58
2023-03-19T06:59:58.621Z,7.57
2023-03-19T07:01:03.271Z,7.58
2023-03-19T07:02:05.656Z,7.59
2023-03-19T07:03:10.528Z,7.60
2023-03-19T07:04:15.262Z,7.64
2023-03-19T07:05:17.337Z,7.68
2023-03-19T07:06:22.005Z,7.70
2023-03-19T07:07:24.104Z,7.73
2023-03-19T07:08:30.018Z,7.75
2023-03-19T07:09:32.399Z,7.78
2023-03-19T07:10:37.361Z,7.82
2023-03-19T07:11:39.465Z,7.88
2023-03-19T07:12:46.748Z,8.00
2023-03-19T07:13:48.873Z,8.04
2023-03-19T07:14:53.550Z,8.12
2023-03-19T07:15:55.595Z,8.15
2023-03-19T07:17:00.214Z,8.21
2023-03-19T07:18:05.185Z,8.27
2023-03-19T07:19:07.379Z,8.35
2023-03-19T07:20:14.168Z,8.40
2023-03-19T07:21:19.015Z,8.45
2023-03-19T07:22:21.847Z,8.55
2023-03-19T07:23:26.453Z,8.64
2023-03-19T07:24:31.089Z,8.57
2023-03-19T07:25:33.228Z,8.54
2023-03-19T07:26:37.980Z,8.62
2023-03-19T07:27:40.019Z,8.54
2023-03-19T07:28:47.459Z,8.55
2023-03-19T07:29:49.514Z,8.56
2023-03-19T07:30:55.049Z,8.61
2023-03-19T07:31:57.708Z,8.64
2023-03-19T07:33:02.358Z,8.65
2023-03-19T07:34:04.518Z,8.76
2023-03-19T07:35:11.662Z,8.72
2023-03-19T07:36:13.768Z,8.79
2023-03-19T07:37:20.706Z,8.89
2023-03-19T07:38:24.630Z,8.98
2023-03-19T07:39:29.250Z,9.05
2023-03-19T07:40:31.624Z,9.07
2023-03-19T07:41:36.400Z,9.13
2023-03-19T07:42:38.715Z,9.22
2023-03-19T07:43:43.349Z,9.35
2023-03-19T07:44:48.024Z,9.44
2023-03-19T07:45:52.835Z,9.51
2023-03-19T07:46:54.999Z,9.62
2023-03-19T07:48:03.458Z,9.72
2023-03-19T07:49:08.380Z,9.87
2023-03-19T07:50:14.211Z,9.98
2023-03-19T07:51:16.186Z,10.08
2023-03-19T07:52:21.808Z,10.18
2023-03-19T07:53:23.913Z,10.27
2023-03-19T07:54:28.516Z,10.37
2023-03-19T07:55:30.906Z,10.44
2023-03-19T07:56:36.297Z,10.52
2023-03-19T07:57:39.360Z,10.62
2023-03-19T07:58:43.968Z,10.69
2023-03-19T07:59:48.819Z,10.75
2023-03-19T08:00:53.451Z,10.80
2023-03-19T08:01:55.485Z,10.77
2023-03-19T08:03:00.227Z,10.88
2023-03-19T08:04:04.921Z,11.00
2023-03-19T08:05:08.103Z,11.05
2023-03-19T08:06:13.337Z,11.12
2023-03-19T08:07:18.030Z,11.17
2023-03-19T08:08:23.094Z,11.23
2023-03-19T08:09:28.121Z,11.04
2023-03-19T08:10:30.197Z,11.06
2023-03-19T08:11:34.876Z,11.17
2023-03-19T08:12:41.150Z,11.22
2023-03-19T08:13:45.815Z,11.28
2023-03-19T08:14:50.532Z,11.21
2023-03-19T08:15:56.489Z,11.24
2023-03-19T08:16:58.629Z,11.29
2023-03-19T08:18:05.152Z,11.31
2023-03-19T08:19:09.954Z,11.39
2023-03-19T08:20:16.886Z,11.46
2023-03-19T08:21:19.228Z,11.49
2023-03-19T08:22:23.881Z,11.58
2023-03-19T08:23:28.582Z,11.62
2023-03-19T08:24:30.976Z,11.69
2023-03-19T08:25:36.001Z,11.49
2023-03-19T08:26:38.056Z,11.65
2023-03-19T08:27:42.835Z,11.77
2023-03-19T08:28:44.962Z,11.94
2023-03-19T08:29:52.195Z,11.98
2023-03-19T08:30:55.991Z,12.04
2023-03-19T08:32:01.389Z,11.60
2023-03-19T08:33:06.948Z,11.38
2023-03-19T08:34:12.060Z,11.57
2023-03-19T08:35:14.304Z,11.70
2023-03-19T08:36:19.350Z,11.51
2023-03-19T08:37:21.439Z,11.60
2023-03-19T08:38:26.150Z,11.65
2023-03-19T08:39:30.898Z,11.53
2023-03-19T08:40:36.608Z,11.69
2023-03-19T08:41:38.941Z,11.53
2023-03-19T08:42:45.321Z,11.84
2023-03-19T08:43:47.976Z,12.04
2023-03-19T08:44:55.321Z,12.12
2023-03-19T08:45:57.447Z,12.15
2023-03-19T08:47:02.128Z,12.09
2023-03-19T08:48:04.541Z,12.23
2023-03-19T08:49:09.241Z,11.88
2023-03-19T08:50:11.974Z,11.65
2023-03-19T08:51:16.699Z,11.75
2023-03-19T08:52:19.226Z,11.97
2023-03-19T08:53:23.947Z,12.16
2023-03-19T08:54:26.072Z,12.34
2023-03-19T08:55:30.825Z,12.41
2023-03-19T08:56:32.908Z,12.25
2023-03-19T08:57:38.409Z,12.52
2023-03-19T08:58:42.289Z,12.54
2023-03-19T08:59:47.165Z,12.71
2023-03-19T09:00:54.467Z,12.74
2023-03-19T09:01:56.576Z,12.65
2023-03-19T09:03:01.394Z,12.41
2023-03-19T09:04:06.469Z,12.59
2023-03-19T09:05:09.361Z,12.77
2023-03-19T09:06:15.724Z,12.88
2023-03-19T09:07:17.832Z,12.59
2023-03-19T09:08:22.499Z,12.85
2023-03-19T09:09:24.965Z,12.94
2023-03-19T09:10:29.635Z,13.02
2023-03-19T09:11:34.390Z,12.87
2023-03-19T09:12:36.719Z,12.78
2023-03-19T09:13:41.411Z,13.03
2023-03-19T09:14:44.044Z,12.80
2023-03-19T09:15:48.753Z,12.55
2023-03-19T09:16:53.772Z,12.52
2023-03-19T09:17:58.538Z,12.75
2023-03-19T09:19:00.560Z,12.43
2023-03-19T09:20:06.175Z,12.38
2023-03-19T09:21:08.187Z,12.77
2023-03-19T09:22:12.882Z,13.02
2023-03-19T09:23:14.930Z,12.78
2023-03-19T09:24:20.341Z,12.70
2023-03-19T09:25:22.659Z,13.09
2023-03-19T09:26:27.399Z,13.35
2023-03-19T09:27:30.000Z,13.53
2023-03-19T09:28:34.620Z,13.66
2023-03-19T09:29:39.625Z,13.63
2023-03-19T09:30:41.731Z,13.06
2023-03-19T09:31:46.866Z,13.20
2023-03-19T09:32:54.134Z,13.36
2023-03-19T09:33:56.256Z,13.34
2023-03-19T09:35:01.295Z,13.64
2023-03-19T09:36:03.534Z,13.41
2023-03-19T09:37:08.500Z,13.38
2023-03-19T09:38:10.772Z,13.29
2023-03-19T09:39:15.498Z,13.16
2023-03-19T09:40:23.217Z,13.49
2023-03-19T09:41:35.636Z,13.71
2023-03-19T09:42:56.111Z,13.87
2023-03-19T09:44:01.491Z,14.24
2023-03-19T09:45:06.429Z,13.88
2023-03-19T09:46:14.544Z,14.16
2023-03-19T09:47:32.368Z,14.63
2023-03-19T09:48:53.249Z,14.59
2023-03-19T09:49:58.070Z,14.32
2023-03-19T09:51:05.950Z,14.45
2023-03-19T09:52:23.325Z,14.46
2023-03-19T09:53:39.888Z,14.49
2023-03-19T09:54:49.169Z,13.75
2023-03-19T09:55:54.251Z,13.52
2023-03-19T09:56:59.111Z,13.43
2023-03-19T09:58:02.314Z,13.66
2023-03-19T09:59:07.011Z,13.63
2023-03-19T10:00:24.515Z,12.89
2023-03-19T10:01:30.084Z,13.30
2023-03-19T10:02:43.473Z,13.35
2023-03-19T10:04:08.003Z,13.81
2023-03-19T10:05:31.725Z,14.05
2023-03-19T10:06:41.131Z,14.74
2023-03-19T10:08:05.511Z,15.22
2023-03-19T10:09:43.218Z,15.51
2023-03-19T10:10:52.123Z,15.90
2023-03-19T10:12:10.256Z,15.57
2023-03-19T10:13:29.156Z,15.89
2023-03-19T10:15:04.627Z,15.61
2023-03-19T10:16:17.519Z,14.58
2023-03-19T10:17:27.425Z,14.68
2023-03-19T10:18:35.785Z,14.77
2023-03-19T10:19:45.860Z,14.92
2023-03-19T10:20:56.834Z,14.89
2023-03-19T10:22:03.781Z,14.96
2023-03-19T10:23:26.801Z,15.66
2023-03-19T10:24:37.532Z,16.54
2023-03-19T10:25:42.593Z,17.06
2023-03-19T10:26:48.686Z,17.36
2023-03-19T10:27:56.340Z,17.49
2023-03-19T10:29:08.260Z,17.38
2023-03-19T10:30:16.008Z,17.91
2023-03-19T10:31:30.373Z,17.44
2023-03-19T10:32:44.266Z,17.32
2023-03-19T10:33:53.201Z,17.92
2023-03-19T10:35:03.458Z,17.70
2023-03-19T10:36:10.491Z,18.15
2023-03-19T10:37:20.700Z,18.28
2023-03-19T10:38:24.966Z,18.33
2023-03-19T10:39:30.820Z,18.19
2023-03-19T10:40:47.504Z,19.02
2023-03-19T10:42:00.723Z,19.75
2023-03-19T10:43:15.469Z,20.19
2023-03-19T10:44:29.361Z,18.77
2023-03-19T10:45:38.471Z,19.16
2023-03-19T10:46:43.858Z,19.57
2023-03-19T10:47:46.209Z,19.09
2023-03-19T10:48:51.176Z,19.69
2023-03-19T10:49:56.371Z,19.51
2023-03-19T10:51:04.794Z,19.43
2023-03-19T10:52:19.632Z,19.16
2023-03-19T10:53:34.124Z,20.17
2023-03-19T10:54:40.724Z,20.50
2023-03-19T10:55:50.727Z,20.53
2023-03-19T10:56:59.031Z,20.51
2023-03-19T10:58:06.475Z,21.20
2023-03-19T10:59:25.424Z,20.51
2023-03-19T11:00:32.427Z,21.17
2023-03-19T11:01:39.012Z,21.67
2023-03-19T11:02:51.590Z,21.61
2023-03-19T11:03:57.908Z,20.27
2023-03-19T11:05:21.975Z,21.03
2023-03-19T11:06:33.924Z,21.24
2023-03-19T11:07:37.433Z,21.49
2023-03-19T11:08:42.222Z,21.41
2023-03-19T11:09:50.218Z,21.95
2023-03-19T11:10:52.338Z,22.19
2023-03-19T11:12:01.992Z,22.61
2023-03-19T11:13:09.199Z,22.59
2023-03-19T11:14:16.860Z,22.95
2023-03-19T11:15:25.080Z,23.07
2023-03-19T11:16:27.197Z,22.77
2023-03-19T11:17:41.831Z,22.87
2023-03-19T11:18:48.562Z,20.63
2023-03-19T11:19:56.862Z,19.33
2023-03-19T11:21:02.289Z,18.58
2023-03-19T11:22:21.146Z,19.37
2023-03-19T11:23:26.149Z,18.91
2023-03-19T11:24:28.379Z,19.18
2023-03-19T11:25:38.116Z,19.88
2023-03-19T11:26:46.152Z,19.90
2023-03-19T11:27:58.944Z,19.20
2023-03-19T11:29:08.017Z,19.20
2023-03-19T11:30:19.915Z,18.64
2023-03-19T11:31:29.083Z,17.72
2023-03-19T11:32:55.138Z,18.70
2023-03-19T11:34:11.664Z,18.35
2023-03-19T11:35:18.887Z,17.96
2023-03-19T11:36:27.929Z,18.20
2023-03-19T11:37:49.988Z,18.30
2023-03-19T11:39:18.808Z,17.17
2023-03-19T11:40:34.288Z,17.08
2023-03-19T11:41:53.266Z,17.68
2023-03-19T11:43:17.553Z,17.55
2023-03-19T11:44:28.553Z,17.81
2023-03-19T11:45:38.512Z,17.98
2023-03-19T11:46:54.389Z,17.54
2023-03-19T11:48:09.339Z,16.95
2023-03-19T11:49:39.630Z,17.38
2023-03-19T11:50:50.643Z,17.19
2023-03-19T11:52:01.012Z,17.26
2023-03-19T11:53:21.803Z,17.96
2023-03-19T11:54:35.490Z,18.55
2023-03-19T11:55:45.530Z,18.91
2023-03-19T11:56:51.735Z,18.58
2023-03-19T11:58:07.857Z,18.84
2023-03-19T11:59:32.552Z,19.30
2023-03-19T12:00:45.477Z,19.78
2023-03-19T12:02:19.969Z,19.12
2023-03-19T12:03:52.692Z,18.49
2023-03-19T12:05:15.013Z,18.34
2023-03-19T12:06:31.472Z,18.77
2023-03-19T12:07:47.643Z,19.30
2023-03-19T12:09:04.702Z,19.78
2023-03-19T12:10:30.567Z,19.01
2023-03-19T12:11:43.034Z,18.92
2023-03-19T12:12:56.728Z,19.57
2023-03-19T12:14:23.885Z,19.60
2023-03-19T12:15:34.420Z,20.17
2023-03-19T12:16:55.957Z,19.87
2023-03-19T12:18:11.008Z,20.25
2023-03-19T12:19:35.117Z,19.00
2023-03-19T12:20:52.894Z,18.94
2023-03-19T12:22:09.370Z,18.92
2023-03-19T12:23:21.633Z,18.22
2023-03-19T12:24:37.994Z,18.97
2023-03-19T12:26:04.627Z,19.12
2023-03-19T12:27:25.128Z,18.52
2023-03-19T12:28:30.817Z,19.01
2023-03-19T12:29:43.591Z,19.27
2023-03-19T12:30:52.989Z,19.71
2023-03-19T12:32:25.670Z,19.43
2023-03-19T12:33:38.878Z,19.61
2023-03-19T12:34:49.316Z,18.82
2023-03-19T12:35:58.038Z,19.15
2023-03-19T12:37:14.498Z,19.33
2023-03-19T12:38:21.690Z,19.67
2023-03-19T12:39:35.766Z,19.44
2023-03-19T12:40:42.591Z,19.88
2023-03-19T12:41:50.132Z,20.35
2023-03-19T12:42:56.162Z,20.07
2023-03-19T12:44:06.544Z,19.86
2023-03-19T12:45:23.380Z,19.49
2023-03-19T12:46:34.068Z,18.74
2023-03-19T12:47:40.882Z,18.27
2023-03-19T12:48:51.345Z,18.71
2023-03-19T12:49:57.248Z,18.04
2023-03-19T12:51:09.415Z,17.74
2023-03-19T12:52:24.093Z,18.09
2023-03-19T12:53:38.469Z,18.03
2023-03-19T12:54:48.944Z,18.14
2023-03-19T12:55:58.086Z,18.48
2023-03-19T12:57:04.371Z,18.32
2023-03-19T12:58:15.657Z,17.97
2023-03-19T12:59:25.980Z,17.49
2023-03-19T13:00:35.931Z,17.18
2023-03-19T13:01:47.869Z,17.11
2023-03-19T13:02:56.372Z,17.26
2023-03-19T13:04:04.632Z,17.84
2023-03-19T13:05:23.059Z,18.28
2023-03-19T13:06:31.027Z,18.43
2023-03-19T13:07:40.487Z,18.69
2023-03-19T13:08:51.738Z,19.46
2023-03-19T13:10:03.519Z,19.58
2023-03-19T13:11:12.962Z,19.18
2023-03-19T13:12:23.394Z,19.31
2023-03-19T13:13:33.381Z,18.91
2023-03-19T13:14:47.887Z,18.97
2023-03-19T13:15:55.037Z,19.64
2023-03-19T13:17:06.010Z,19.70
2023-03-19T13:18:23.761Z,19.71
2023-03-19T13:19:32.658Z,18.87
2023-03-19T13:20:53.520Z,19.01
2023-03-19T13:21:59.530Z,18.47
2023-03-19T13:23:08.633Z,18.31
2023-03-19T13:24:22.221Z,18.43
2023-03-19T13:25:35.914Z,18.36
2023-03-19T13:26:39.312Z,17.77
2023-03-19T13:27:43.938Z,17.82
2023-03-19T13:28:59.276Z,18.01
2023-03-19T13:30:11.492Z,18.22
2023-03-19T13:31:20.873Z,17.60
2023-03-19T13:32:30.024Z,17.66
2023-03-19T13:33:37.718Z,17.12
2023-03-19T13:34:40.059Z,16.25
2023-03-19T13:35:47.548Z,15.87
2023-03-19T13:36:57.971Z,16.00
2023-03-19T13:38:02.824Z,16.00
2023-03-19T13:39:15.467Z,15.89
2023-03-19T13:40:42.225Z,15.55
2023-03-19T13:42:28.829Z,15.42
2023-03-19T13:43:43.223Z,15.22
2023-03-19T13:44:55.271Z,15.32
2023-03-19T13:46:05.700Z,15.39
2023-03-19T13:47:42.445Z,15.35
2023-03-19T13:48:52.073Z,15.40
2023-03-19T13:50:23.376Z,15.48
2023-03-19T13:51:33.117Z,15.51
2023-03-19T13:52:48.432Z,15.46
2023-03-19T13:53:56.454Z,15.19
2023-03-19T13:55:32.952Z,15.00
2023-03-19T13:57:08.883Z,14.87
2023-03-19T13:58:48.029Z,14.90
2023-03-19T13:59:53.548Z,15.09
2023-03-19T14:00:58.613Z,15.10
2023-03-19T14:02:04.266Z,14.93
2023-03-19T14:03:07.397Z,14.83
2023-03-19T14:04:30.791Z,14.60
2023-03-19T14:05:36.373Z,14.43
2023-03-19T14:06:43.725Z,14.63
2023-03-19T14:07:51.766Z,14.69
2023-03-19T14:08:56.899Z,14.62
2023-03-19T14:10:18.563Z,14.55
2023-03-19T14:11:24.797Z,14.32
2023-03-19T14:12:40.183Z,14.44
2023-03-19T14:13:50.247Z,14.45
2023-03-19T14:14:56.302Z,14.24
2023-03-19T14:16:09.059Z,14.14
2023-03-19T14:17:16.508Z,13.93
2023-03-19T14:18:24.737Z,13.96
2023-03-19T14:19:27.012Z,13.91
2023-03-19T14:20:40.603Z,13.73
2023-03-19T14:21:49.354Z,13.75
2023-03-19T14:23:03.382Z,13.77
2023-03-19T14:26:07.911Z,13.50
2023-03-19T14:27:24.654Z,13.45
2023-03-19T14:28:36.476Z,13.18
2023-03-19T14:29:46.208Z,12.96
2023-03-19T14:30:49.960Z,12.92
2023-03-19T14:31:57.439Z,12.80
2023-03-19T14:33:04.049Z,12.64
2023-03-19T14:34:20.882Z,12.62
2023-03-19T14:35:26.213Z,12.46
2023-03-19T14:36:31.488Z,12.44
2023-03-19T14:37:47.917Z,12.41
2023-03-19T14:38:53.190Z,12.50